Salem, IL (62881)

1:51 PM CDT on July 26, 2016 (GMT -0500)
Downtown Salem, IL | | Change Station

Elev 548 ft 38.63 °N, 88.95 °W | Updated 4 minutes ago

Clear
Clear
88.9 °F
Feels Like 98 °F
N
4.7
Wind Variable Wind from East

Today
High -- | Low -- °F
--% Chance of Precip.
Yesterday
High -- | Low -- °F
Precip. -- in
Pressure 30.01 in
Visibility 10.0 miles
Clouds Clear
Heat Index 98 °F
Dew Point 74 °F
Humidity 61%
Rainfall 0.03 in
Snow Depth Not available.
5:52 AM 8:11 PM
Waning Gibbous, 52% visible
METAR KSLO 261835Z AUTO 00000KT 10SM CLR 30/23 A3001 RMK AO2 T03010234
Pressure 30.01 in
Visibility 10.0 miles
Clouds Clear
Heat Index 98 °F
Dew Point 74 °F
Humidity 61%
Rainfall 0.03 in
Snow Depth Not available.
5:52 AM 8:11 PM
Waning Gibbous, 52% visible
METAR KSLO 261835Z AUTO 00000KT 10SM CLR 30/23 A3001 RMK AO2 T03010234

10-Day Weather Forecast

Almanac

Astronomy

Jul. 26, 2016 Rise Set
Actual Time
Civil Twilight
Nautical Twilight
Astronomical Twilight
Moon
Length of Visible Light
Length of Day
Tomorrow will be .
, % of the Moon is Illuminated

Today's Extremes

State Highs State Lows

Community

WunderPhotos

Upload Photos

1,927,653 photos uploaded!

WunderBlog® & News

Nearby

Air Quality

  Air Quality AQ Index Pollutant
Not available.

Snow Depth

Station Depth Elevation

Earthquake Activity

City Distance Mag. Time & Date
Minimum magnitude displayed is 2.5.

Coastal Water Temperatures

Place Temperature

Stations

Nearby Weather Stations

Station Location Temp. Windchill Dew Point Humidity Wind Precip. Elev Updated Type
                   

Watches & Warnings

There are currently no watches in effect.